Tenerife > ESTACION METEOROLÓGICA La Escalona - Vilaflor

DATOS ACTUALES Online

Ultima actulizacion 40 minutos

14.1 ºC

Temperatura

84

Humedad (%)

903.27

Presión (mb)

0

Precipitación (mm)

9 SW

Viento (Km/h)

DATOS DIARIOS

Temperatura últimas 24 horas (ºC)

Humedad últimas 24 horas (%)

Presión atmosférica últimas 24 horas (mb)

Precipitaciones últimas 23 horas (mm)

Viento últimas 24 horas (Km/h)

Hora Temperatura (°C) ºC Precipitación (mm) mm Presión (mb) mb Humedad (%) % Viento (Km/h) km/h
28 - 10:00 13.9 0 903 89 9.2 SW
28 - 11:00 15.7 0 903 82 22.8 S
28 - 12:00 14.5 0 904 87 12.5 SW
28 - 13:00 14.5 0 904 86 14.9 W
28 - 14:00 15.2 0 903 84 11.9 S
28 - 15:00 15.1 0 903 86 9.3 SW
28 - 16:00 16.2 0 903 83 12.8 S
28 - 17:00 15.6 0 903 86 15.8 SW
28 - 18:00 15.4 0 902 87 9 SW
28 - 19:00 14.3 0 903 91 10.7 W
28 - 20:00 14.1 0 903 92 7 W
28 - 21:00 13.7 0 903 93 11.4 W
28 - 22:00 13.9 0 903 91 9.9 W
28 - 23:00 13.7 0 903 92 14.4 W
29 - 00:00 13.5 0 903 92 17.6 W
29 - 01:00 13.4 0 903 91 11.1 N
29 - 02:00 13.2 0 903 92 9.9 W
29 - 03:00 12.8 0 902 92 14.9 W
29 - 04:00 13 0 902 91 9.9 W
29 - 05:00 12.9 0 902 93 9.5 W
29 - 06:00 13 0 902 88 13 W
29 - 07:00 13.3 0 902 86 7.3 NO
29 - 08:00 13.5 0 903 85 8.3 SO
29 - 09:00 14.1 0 903 84 9 SW
29 - 10:00
Apalmet utiliza cookies propias y de terceros para mejorar la usabilidad y la experiencia web. Política de cookies.